createdAt,value
2022-12-17T00:00:26.039Z,11.10
2022-12-17T00:03:49.827Z,14.13
2022-12-17T00:07:14.889Z,10.63
2022-12-17T00:10:42.403Z,12.90
2022-12-17T00:14:12.896Z,12.43
2022-12-17T00:17:35.132Z,8.70
2022-12-17T00:20:57.544Z,12.63
2022-12-17T00:24:33.867Z,10.10
2022-12-17T00:27:57.218Z,11.10
2022-12-17T00:31:19.538Z,8.87
2022-12-17T00:34:41.804Z,11.27
2022-12-17T00:38:06.914Z,10.30
2022-12-17T00:41:42.389Z,11.63
2022-12-17T00:45:05.996Z,12.17
2022-12-17T00:48:30.321Z,13.40
2022-12-17T00:51:57.480Z,10.57
2022-12-17T00:55:23.513Z,12.20
2022-12-17T00:59:12.152Z,10.07
2022-12-17T01:02:54.608Z,11.73
2022-12-17T01:06:26.462Z,11.10
2022-12-17T01:09:52.547Z,14.13
2022-12-17T01:17:49.538Z,7.27
2022-12-17T01:21:20.275Z,14.47
2022-12-17T01:28:52.178Z,14.40
2022-12-17T01:32:16.969Z,10.23
2022-12-17T01:35:44.107Z,11.60
2022-12-17T01:39:14.161Z,9.20
2022-12-17T01:42:52.064Z,13.33
2022-12-17T01:46:20.142Z,13.50
2022-12-17T01:50:12.704Z,12.10
2022-12-17T01:53:43.275Z,16.70
2022-12-17T01:57:18.663Z,8.37
2022-12-17T02:00:50.576Z,13.60
2022-12-17T02:04:24.504Z,6.97
2022-12-17T02:08:09.200Z,9.17
2022-12-17T02:11:46.122Z,12.73
2022-12-17T02:15:20.015Z,11.17
2022-12-17T02:19:03.665Z,12.53
2022-12-17T02:22:45.206Z,10.63
2022-12-17T02:26:16.462Z,11.37
2022-12-17T02:29:48.760Z,9.63
2022-12-17T02:33:13.684Z,10.67
2022-12-17T02:36:45.834Z,10.13
2022-12-17T02:40:13.106Z,11.87
2022-12-17T02:43:45.596Z,11.27
2022-12-17T02:47:19.708Z,12.43
2022-12-17T02:50:47.377Z,11.20
2022-12-17T02:54:15.138Z,15.73
2022-12-17T02:57:43.827Z,14.33
2022-12-17T03:01:08.356Z,10.33
2022-12-17T03:04:34.748Z,13.73
2022-12-17T03:07:58.070Z,15.40
2022-12-17T03:11:25.793Z,14.80
2022-12-17T03:14:48.219Z,17.00
2022-12-17T03:18:11.775Z,10.47
2022-12-17T03:21:38.364Z,12.57
2022-12-17T03:25:00.687Z,11.27
2022-12-17T03:28:26.308Z,12.93
2022-12-17T03:31:48.511Z,13.53
2022-12-17T03:35:12.845Z,9.67
2022-12-17T03:38:37.706Z,11.17
2022-12-17T03:42:02.151Z,12.77
2022-12-17T03:45:24.988Z,14.27
2022-12-17T03:48:47.401Z,15.17
2022-12-17T03:52:09.900Z,11.07
2022-12-17T03:55:35.356Z,17.27
2022-12-17T03:58:58.154Z,15.27
2022-12-17T04:02:21.846Z,10.53
2022-12-17T04:05:44.721Z,14.20
2022-12-17T04:09:07.748Z,18.53
2022-12-17T04:12:36.233Z,14.17
2022-12-17T04:16:06.994Z,12.53
2022-12-17T04:19:26.550Z,12.13
2022-12-17T04:22:48.393Z,9.03
2022-12-17T04:26:11.257Z,13.57
2022-12-17T04:29:34.737Z,13.53
2022-12-17T04:32:56.954Z,14.30
2022-12-17T04:36:19.096Z,13.63
2022-12-17T04:39:42.446Z,24.13
2022-12-17T04:43:06.240Z,15.80
2022-12-17T04:46:31.283Z,18.53
2022-12-17T04:49:54.410Z,15.03
2022-12-17T04:53:21.282Z,17.13
2022-12-17T04:56:44.630Z,17.13
2022-12-17T05:00:12.707Z,18.20
2022-12-17T05:03:38.734Z,20.90
2022-12-17T05:07:07.631Z,24.67
2022-12-17T05:10:44.422Z,29.90
2022-12-17T05:14:09.446Z,22.60
2022-12-17T05:18:14.156Z,27.67
2022-12-17T05:30:21.276Z,21.83
2022-12-17T05:34:16.195Z,18.97
2022-12-17T05:37:55.072Z,18.43
2022-12-17T05:45:26.554Z,18.47
2022-12-17T05:48:56.606Z,25.40
2022-12-17T05:52:52.163Z,19.10
2022-12-17T05:56:54.271Z,31.23
2022-12-17T06:00:29.139Z,25.93
2022-12-17T06:03:57.418Z,24.37
2022-12-17T06:07:28.691Z,22.53
2022-12-17T06:10:53.969Z,30.17
2022-12-17T06:14:31.800Z,27.63
2022-12-17T06:17:57.678Z,22.97
2022-12-17T06:21:29.414Z,25.13
2022-12-17T06:25:44.396Z,24.10
2022-12-17T06:29:21.168Z,32.77
2022-12-17T06:32:58.853Z,26.47
2022-12-17T06:36:31.668Z,25.67
2022-12-17T06:40:00.507Z,21.77
2022-12-17T06:43:27.349Z,22.60
2022-12-17T06:50:55.396Z,21.10
2022-12-17T06:54:30.216Z,24.23
2022-12-17T06:58:17.625Z,20.73
2022-12-17T07:01:49.351Z,25.33
2022-12-17T07:05:24.691Z,25.87
2022-12-17T07:08:57.755Z,19.43
2022-12-17T07:12:42.154Z,24.77
2022-12-17T07:16:15.389Z,28.17
2022-12-17T07:19:37.726Z,23.80
2022-12-17T07:22:57.764Z,23.37
2022-12-17T07:26:20.069Z,23.13
2022-12-17T07:29:43.546Z,22.77
2022-12-17T07:33:07.642Z,25.23
2022-12-17T07:36:29.966Z,22.33
2022-12-17T07:39:53.283Z,24.57
2022-12-17T07:43:12.507Z,18.47
2022-12-17T07:46:43.436Z,24.30
2022-12-17T07:50:08.574Z,19.77
2022-12-17T07:53:30.771Z,21.67
2022-12-17T07:56:57.128Z,25.00
2022-12-17T08:00:19.559Z,21.00
2022-12-17T08:03:44.887Z,20.93
2022-12-17T08:07:13.243Z,22.33
2022-12-17T08:10:36.419Z,19.20
2022-12-17T08:14:00.321Z,19.97
2022-12-17T08:17:31.707Z,23.57
2022-12-17T08:21:09.034Z,19.90
2022-12-17T08:24:31.688Z,22.10
2022-12-17T08:27:55.154Z,20.70
2022-12-17T08:31:20.252Z,20.60
2022-12-17T08:34:45.516Z,20.37
2022-12-17T08:38:12.574Z,23.40
2022-12-17T08:41:39.007Z,16.87
2022-12-17T08:45:01.608Z,17.17
2022-12-17T08:48:30.067Z,18.50
2022-12-17T08:51:52.632Z,23.30
2022-12-17T08:55:30.749Z,19.07
2022-12-17T08:59:05.711Z,20.53
2022-12-17T09:02:30.399Z,19.10
2022-12-17T09:06:04.253Z,16.90
2022-12-17T09:09:36.695Z,17.77
2022-12-17T09:13:35.027Z,18.67
2022-12-17T09:17:02.744Z,20.40
2022-12-17T09:20:30.610Z,21.00
2022-12-17T09:23:55.724Z,24.17
2022-12-17T09:27:24.581Z,23.70
2022-12-17T09:30:59.169Z,19.70
2022-12-17T09:38:02.720Z,21.83
2022-12-17T09:41:40.137Z,25.77
2022-12-17T09:45:25.726Z,20.13
2022-12-17T09:49:17.252Z,21.73
2022-12-17T09:52:47.015Z,24.27
2022-12-17T09:56:17.036Z,21.93
2022-12-17T09:59:52.344Z,23.97
2022-12-17T10:03:16.821Z,27.77
2022-12-17T10:06:57.714Z,25.10
2022-12-17T10:14:11.276Z,21.77
2022-12-17T10:18:02.397Z,24.50
2022-12-17T10:21:33.121Z,21.17
2022-12-17T10:25:06.952Z,23.00
2022-12-17T10:28:36.549Z,23.60
2022-12-17T10:31:59.424Z,21.80
2022-12-17T10:35:36.827Z,22.30
2022-12-17T10:39:02.697Z,28.77
2022-12-17T10:42:42.393Z,24.83
2022-12-17T10:46:15.309Z,25.23
2022-12-17T10:49:41.236Z,29.27
2022-12-17T10:53:11.362Z,24.27
2022-12-17T10:56:54.083Z,23.27
2022-12-17T11:00:41.951Z,23.00
2022-12-17T11:04:26.028Z,24.47
2022-12-17T11:11:47.800Z,26.10
2022-12-17T11:15:18.668Z,23.63
2022-12-17T11:19:15.664Z,27.83
2022-12-17T11:22:54.304Z,23.57
2022-12-17T11:26:26.051Z,26.90
2022-12-17T11:29:50.980Z,25.43
2022-12-17T11:33:25.665Z,27.73
2022-12-17T11:37:09.827Z,24.80
2022-12-17T11:40:56.726Z,21.30
2022-12-17T11:44:31.598Z,22.90
2022-12-17T11:48:10.133Z,23.17
2022-12-17T11:51:38.544Z,25.07
2022-12-17T11:55:07.487Z,27.30
2022-12-17T11:58:40.939Z,24.63
2022-12-17T12:02:16.099Z,22.30
2022-12-17T12:05:53.443Z,26.80
2022-12-17T12:09:34.188Z,23.60
2022-12-17T12:17:10.293Z,25.87
2022-12-17T12:20:46.518Z,24.73
2022-12-17T12:24:20.951Z,29.97
2022-12-17T12:27:54.799Z,27.47
2022-12-17T12:31:25.270Z,25.33
2022-12-17T12:34:54.974Z,24.03
2022-12-17T12:38:16.370Z,23.37
2022-12-17T12:41:45.994Z,25.37
2022-12-17T12:45:19.589Z,22.07
2022-12-17T12:48:57.830Z,25.00
2022-12-17T12:52:25.320Z,27.30
2022-12-17T12:55:58.594Z,26.33
2022-12-17T12:59:45.811Z,31.40
2022-12-17T13:03:31.094Z,26.70
2022-12-17T13:10:33.038Z,25.23
2022-12-17T13:13:56.414Z,26.50
2022-12-17T13:17:15.685Z,27.67
2022-12-17T13:20:47.657Z,26.53
2022-12-17T13:23:59.017Z,27.80
2022-12-17T13:27:09.192Z,28.07
2022-12-17T13:30:38.756Z,27.50
2022-12-17T13:34:05.921Z,23.47
2022-12-17T13:37:23.103Z,28.20
2022-12-17T13:40:41.353Z,22.50
2022-12-17T13:43:58.649Z,29.23
2022-12-17T13:47:05.659Z,25.40
2022-12-17T13:50:36.587Z,26.23
2022-12-17T13:53:45.004Z,28.60
2022-12-17T13:57:09.622Z,29.33
2022-12-17T14:00:27.634Z,31.00
2022-12-17T14:04:05.290Z,27.97
2022-12-17T14:07:09.365Z,29.07
2022-12-17T14:10:19.441Z,30.07
2022-12-17T14:13:27.507Z,27.77
2022-12-17T14:16:36.622Z,26.90
2022-12-17T14:19:44.922Z,30.43
2022-12-17T14:22:58.202Z,28.53
2022-12-17T14:26:04.825Z,32.87
2022-12-17T14:29:17.544Z,33.40
2022-12-17T14:32:34.898Z,38.20
2022-12-17T14:36:00.063Z,29.13
2022-12-17T14:39:24.365Z,29.27
2022-12-17T14:42:33.746Z,28.33
2022-12-17T14:45:58.465Z,28.83
2022-12-17T14:49:22.493Z,29.33
2022-12-17T14:53:07.059Z,28.03
2022-12-17T14:56:58.693Z,29.47
2022-12-17T15:08:30.733Z,27.43
2022-12-17T15:11:51.024Z,27.97
2022-12-17T15:15:22.976Z,32.07
2022-12-17T15:22:05.548Z,26.83
2022-12-17T15:29:29.347Z,25.93
2022-12-17T15:32:48.711Z,28.07
2022-12-17T15:36:19.847Z,25.43
2022-12-17T15:47:14.828Z,23.20
2022-12-17T15:51:06.562Z,26.23
2022-12-17T16:14:44.837Z,27.13
2022-12-17T16:21:52.565Z,20.50
2022-12-17T16:25:46.213Z,22.47
2022-12-17T16:32:54.801Z,25.23
2022-12-17T16:43:53.868Z,22.20
2022-12-17T16:47:18.818Z,23.67
2022-12-17T16:51:37.677Z,27.63
2022-12-17T16:54:50.330Z,23.97
2022-12-17T16:58:12.244Z,26.43
2022-12-17T17:05:10.390Z,23.40
2022-12-17T17:11:55.043Z,20.93
2022-12-17T17:15:03.939Z,26.73
2022-12-17T17:18:14.116Z,27.50
2022-12-17T17:21:31.864Z,27.00
2022-12-17T17:24:40.041Z,28.43
2022-12-17T17:27:50.838Z,33.53
2022-12-17T17:31:05.558Z,27.63
2022-12-17T17:34:14.429Z,26.47
2022-12-17T17:37:22.886Z,28.80
2022-12-17T17:40:32.455Z,27.30
2022-12-17T17:43:45.412Z,28.80
2022-12-17T17:47:16.207Z,21.20
2022-12-17T17:50:25.789Z,24.20
2022-12-17T17:53:37.481Z,28.60
2022-12-17T17:56:51.837Z,32.53
2022-12-17T18:00:07.675Z,24.43
2022-12-17T18:03:18.075Z,33.60
2022-12-17T18:07:16.031Z,28.87
2022-12-17T18:10:19.259Z,32.10
2022-12-17T18:13:48.574Z,32.37
2022-12-17T18:16:59.189Z,28.27
2022-12-17T18:20:07.794Z,33.73
2022-12-17T18:23:15.259Z,29.70
2022-12-17T18:26:25.405Z,34.03
2022-12-17T18:29:35.966Z,26.00
2022-12-17T18:32:45.083Z,30.83
2022-12-17T18:35:52.427Z,28.50
2022-12-17T18:39:04.078Z,26.83
2022-12-17T18:42:28.477Z,28.00
2022-12-17T18:45:39.222Z,26.57
2022-12-17T18:48:47.896Z,23.40
2022-12-17T18:51:54.540Z,28.30
2022-12-17T18:55:00.730Z,32.27
2022-12-17T18:58:11.531Z,25.40
2022-12-17T19:01:25.682Z,30.37
2022-12-17T19:04:33.517Z,33.50
2022-12-17T19:07:41.226Z,30.10
2022-12-17T19:10:47.920Z,32.80
2022-12-17T19:13:57.126Z,23.13
2022-12-17T19:17:04.516Z,31.37
2022-12-17T19:20:13.965Z,32.63
2022-12-17T19:23:20.639Z,28.23
2022-12-17T19:26:28.186Z,31.07
2022-12-17T19:29:38.465Z,29.27
2022-12-17T19:32:49.347Z,22.60
2022-12-17T19:36:08.664Z,26.43
2022-12-17T19:39:19.625Z,25.00
2022-12-17T19:42:37.141Z,25.87
2022-12-17T19:45:46.183Z,33.33
2022-12-17T19:48:59.694Z,22.80
2022-12-17T19:52:10.307Z,24.47
2022-12-17T19:55:27.874Z,26.50
2022-12-17T19:58:42.554Z,21.43
2022-12-17T20:02:15.006Z,24.30
2022-12-17T20:05:24.276Z,24.80
2022-12-17T20:08:41.435Z,28.70
2022-12-17T20:11:54.606Z,27.87
2022-12-17T20:15:06.713Z,26.43
2022-12-17T20:22:07.508Z,25.53
2022-12-17T20:25:40.575Z,28.77
2022-12-17T20:29:04.439Z,28.67
2022-12-17T20:35:52.413Z,31.20
2022-12-17T20:39:04.830Z,34.70
2022-12-17T20:42:23.685Z,30.97
2022-12-17T20:45:32.634Z,32.13
2022-12-17T20:48:44.152Z,30.80
2022-12-17T20:51:54.274Z,26.67
2022-12-17T20:55:06.040Z,25.87
2022-12-17T20:58:14.893Z,22.97
2022-12-17T21:01:22.938Z,27.03
2022-12-17T21:04:31.438Z,30.60
2022-12-17T21:07:38.691Z,25.40
2022-12-17T21:10:52.008Z,28.87
2022-12-17T21:14:00.054Z,28.23
2022-12-17T21:17:08.016Z,26.83
2022-12-17T21:20:15.351Z,34.63
2022-12-17T21:23:24.594Z,39.27
2022-12-17T21:26:32.955Z,31.40
2022-12-17T21:29:40.911Z,24.60
2022-12-17T21:32:49.023Z,26.33
2022-12-17T21:36:07.586Z,29.33
2022-12-17T21:39:15.746Z,27.00
2022-12-17T21:42:38.098Z,22.30
2022-12-17T21:45:49.185Z,29.00
2022-12-17T21:49:04.445Z,33.80
2022-12-17T21:52:11.366Z,31.67
2022-12-17T21:55:18.451Z,30.63
2022-12-17T21:58:26.811Z,25.73
2022-12-17T22:01:37.600Z,23.90
2022-12-17T22:04:44.020Z,29.27
2022-12-17T22:07:50.396Z,26.87
2022-12-17T22:10:59.136Z,33.77
2022-12-17T22:14:09.527Z,26.97
2022-12-17T22:17:20.557Z,27.67
2022-12-17T22:20:30.620Z,32.97
2022-12-17T22:23:37.800Z,27.30
2022-12-17T22:26:46.960Z,32.57
2022-12-17T22:30:10.011Z,33.93
2022-12-17T22:34:27.613Z,31.60
2022-12-17T22:38:30.393Z,28.53
2022-12-17T22:43:43.645Z,34.07
2022-12-17T22:44:44.172Z,34.13
2022-12-17T22:47:15.846Z,28.93
2022-12-17T22:50:42.287Z,24.00
2022-12-17T22:54:08.724Z,29.30
2022-12-17T22:57:35.760Z,30.93
2022-12-17T23:00:50.671Z,33.50
2022-12-17T23:03:59.365Z,30.20
2022-12-17T23:07:12.299Z,31.20
2022-12-17T23:10:26.567Z,29.77
2022-12-17T23:13:40.373Z,25.93
2022-12-17T23:16:51.759Z,26.53
2022-12-17T23:19:58.944Z,23.93
2022-12-17T23:23:08.053Z,22.47
2022-12-17T23:26:16.371Z,21.90
2022-12-17T23:29:23.402Z,24.23
2022-12-17T23:32:32.131Z,24.37
2022-12-17T23:35:38.128Z,29.37
2022-12-17T23:38:46.797Z,21.30
2022-12-17T23:41:53.063Z,28.33
2022-12-17T23:45:02.733Z,22.97
2022-12-17T23:48:09.921Z,21.07
2022-12-17T23:51:18.282Z,24.07
2022-12-17T23:54:27.726Z,21.70
2022-12-17T23:57:34.500Z,35.20
